createdAt,value
2022-10-12T00:02:11.931Z,76.35
2022-10-12T00:04:53.477Z,74.13
2022-10-12T00:07:23.080Z,72.40
2022-10-12T00:09:58.370Z,70.90
2022-10-12T00:12:39.984Z,74.63
2022-10-12T00:15:15.106Z,81.75
2022-10-12T00:17:59.503Z,71.32
2022-10-12T00:20:37.949Z,81.22
2022-10-12T00:23:22.629Z,73.40
2022-10-12T00:25:52.262Z,75.40
2022-10-12T00:31:28.259Z,82.07
2022-10-12T00:33:55.847Z,78.82
2022-10-12T00:36:32.675Z,74.75
2022-10-12T00:39:14.837Z,75.35
2022-10-12T00:41:53.347Z,72.47
2022-10-12T00:44:45.082Z,72.32
2022-10-12T00:47:51.033Z,80.13
2022-10-12T00:50:34.519Z,70.25
2022-10-12T00:53:17.948Z,70.30
2022-10-12T00:55:59.034Z,73.45
2022-10-12T01:01:14.356Z,74.97
2022-10-12T01:04:00.642Z,71.95
2022-10-12T01:06:39.546Z,74.13
2022-10-12T01:09:07.192Z,72.43
2022-10-12T01:11:43.212Z,79.18
2022-10-12T01:14:14.293Z,72.20
2022-10-12T01:17:16.356Z,69.00
2022-10-12T01:19:58.948Z,72.40
2022-10-12T01:22:52.789Z,72.13
2022-10-12T01:26:02.053Z,67.45
2022-10-12T01:28:38.042Z,79.15
2022-10-12T01:31:20.018Z,68.90
2022-10-12T01:34:23.031Z,71.95
2022-10-12T01:37:00.057Z,71.50
2022-10-12T01:39:52.933Z,73.00
2022-10-12T01:42:36.911Z,69.45
2022-10-12T01:47:41.440Z,70.82
2022-10-12T01:50:29.031Z,73.55
2022-10-12T01:53:16.873Z,72.47
2022-10-12T01:56:07.430Z,67.95
2022-10-12T01:59:11.883Z,67.63
2022-10-12T02:01:54.168Z,66.15
2022-10-12T02:04:50.550Z,65.85
2022-10-12T02:07:39.904Z,68.13
2022-10-12T02:10:19.792Z,68.32
2022-10-12T02:12:56.398Z,63.92
2022-10-12T02:15:39.627Z,66.53
2022-10-12T02:18:22.772Z,54.17
2022-10-12T02:21:02.137Z,59.13
2022-10-12T02:23:30.256Z,56.38
2022-10-12T02:26:03.323Z,55.20
2022-10-12T02:28:37.600Z,57.13
2022-10-12T02:31:21.751Z,59.25
2022-10-12T02:37:05.218Z,55.33
2022-10-12T02:39:47.504Z,54.40
2022-10-12T02:42:27.485Z,56.15
2022-10-12T02:45:07.281Z,56.33
2022-10-12T02:47:50.844Z,54.72
2022-10-12T02:50:28.078Z,60.13
2022-10-12T02:53:06.647Z,59.22
2022-10-12T02:55:41.687Z,56.08
2022-10-12T02:58:24.867Z,52.28
2022-10-12T03:01:08.131Z,60.73
2022-10-12T03:03:39.433Z,50.28
2022-10-12T03:06:20.864Z,55.03
2022-10-12T03:09:01.729Z,53.13
2022-10-12T03:11:44.752Z,58.88
2022-10-12T03:14:28.683Z,59.13
2022-10-12T03:17:04.232Z,59.40
2022-10-12T03:19:40.041Z,53.05
2022-10-12T03:22:08.513Z,57.40
2022-10-12T03:24:55.385Z,54.72
2022-10-12T03:27:38.656Z,60.45
2022-10-12T03:30:17.797Z,62.00
2022-10-12T03:32:56.959Z,58.33
2022-10-12T03:35:37.988Z,58.22
2022-10-12T03:38:07.730Z,58.83
2022-10-12T03:40:53.928Z,57.17
2022-10-12T03:43:32.261Z,62.80
2022-10-12T03:46:02.519Z,65.28
2022-10-12T03:48:38.633Z,61.78
2022-10-12T03:51:24.643Z,64.10
2022-10-12T03:54:00.903Z,65.90
2022-10-12T03:56:41.874Z,72.40
2022-10-12T03:59:20.190Z,70.90
2022-10-12T04:02:01.601Z,69.95
2022-10-12T04:04:41.863Z,74.47
2022-10-12T04:07:16.237Z,82.05
2022-10-12T04:09:57.022Z,80.97
2022-10-12T04:12:38.339Z,78.15
2022-10-12T04:15:14.667Z,79.63
2022-10-12T04:18:00.726Z,78.07
2022-10-12T04:20:43.011Z,74.78
2022-10-12T04:23:29.306Z,76.88
2022-10-12T04:26:05.984Z,70.00
2022-10-12T04:28:46.817Z,77.45
2022-10-12T04:31:26.165Z,76.93
2022-10-12T04:34:04.454Z,71.45
2022-10-12T04:36:42.570Z,70.15
2022-10-12T04:39:19.736Z,72.15
2022-10-12T04:41:59.304Z,71.57
2022-10-12T04:44:42.406Z,66.72
2022-10-12T04:47:19.997Z,69.07
2022-10-12T04:50:05.900Z,71.63
2022-10-12T04:52:38.640Z,75.70
2022-10-12T04:55:22.942Z,65.70
2022-10-12T04:57:59.108Z,65.65
2022-10-12T05:00:32.094Z,70.53
2022-10-12T05:05:43.162Z,76.18
2022-10-12T05:08:24.465Z,66.28
2022-10-12T05:11:03.101Z,66.70
2022-10-12T05:13:46.723Z,66.63
2022-10-12T05:16:17.547Z,62.05
2022-10-12T05:18:47.364Z,62.08
2022-10-12T05:21:25.453Z,66.47
2022-10-12T05:24:07.319Z,68.53
2022-10-12T05:26:59.841Z,66.68
2022-10-12T05:29:39.960Z,72.95
2022-10-12T05:32:14.840Z,65.95
2022-10-12T05:34:58.375Z,75.30
2022-10-12T05:37:36.765Z,64.55
2022-10-12T05:40:10.625Z,65.82
2022-10-12T05:42:47.739Z,72.37
2022-10-12T05:45:24.099Z,67.70
2022-10-12T05:48:04.562Z,73.18
2022-10-12T05:50:42.484Z,79.93
2022-10-12T05:53:29.516Z,89.95
2022-10-12T05:56:05.743Z,88.35
2022-10-12T05:58:40.440Z,94.72
2022-10-12T06:04:12.350Z,88.13
2022-10-12T06:06:44.476Z,92.65
2022-10-12T06:09:19.811Z,92.13
2022-10-12T06:12:00.207Z,89.47
2022-10-12T06:14:32.574Z,102.38
2022-10-12T06:17:15.655Z,104.90
2022-10-12T06:19:55.181Z,93.15
2022-10-12T06:22:36.032Z,102.75
2022-10-12T06:25:13.921Z,107.95
2022-10-12T06:27:56.947Z,103.75
2022-10-12T06:30:33.019Z,105.47
2022-10-12T06:33:14.612Z,109.95
2022-10-12T06:38:59.685Z,107.68
2022-10-12T06:44:33.151Z,107.03
2022-10-12T06:47:18.763Z,99.45
2022-10-12T06:50:04.898Z,90.20
2022-10-12T06:52:48.275Z,100.72
2022-10-12T06:55:23.265Z,98.53
2022-10-12T06:57:56.145Z,99.75
2022-10-12T07:00:37.123Z,98.78
2022-10-12T07:03:29.743Z,92.25
2022-10-12T07:06:12.906Z,91.28
2022-10-12T07:08:53.494Z,93.13
2022-10-12T07:11:35.032Z,91.47
2022-10-12T07:14:07.642Z,98.93
2022-10-12T07:16:52.890Z,85.70
2022-10-12T07:19:29.807Z,67.78
2022-10-12T07:22:14.636Z,54.70
2022-10-12T07:24:49.803Z,51.38
2022-10-12T07:27:25.745Z,46.75
2022-10-12T07:29:56.177Z,43.75
2022-10-12T07:32:28.933Z,39.95
2022-10-12T07:34:56.116Z,44.33
2022-10-12T07:37:39.394Z,31.42
2022-10-12T07:40:15.674Z,32.92
2022-10-12T07:43:14.336Z,43.53
2022-10-12T07:45:48.059Z,34.47
2022-10-12T07:48:25.995Z,31.65
2022-10-12T07:51:09.402Z,29.95
2022-10-12T07:53:48.183Z,33.53
2022-10-12T07:56:29.092Z,34.88
2022-10-12T07:59:04.853Z,33.38
2022-10-12T08:01:39.978Z,33.15
2022-10-12T08:04:13.265Z,31.48
2022-10-12T08:06:51.185Z,26.73
2022-10-12T08:09:35.768Z,36.35
2022-10-12T08:12:15.481Z,28.17
2022-10-12T08:14:53.801Z,26.85
2022-10-12T08:17:36.498Z,30.30
2022-10-12T08:20:21.007Z,29.48
2022-10-12T08:22:59.494Z,33.55
2022-10-12T08:25:39.503Z,37.17
2022-10-12T08:28:14.873Z,30.95
2022-10-12T08:30:52.755Z,28.13
2022-10-12T08:33:29.085Z,29.35
2022-10-12T08:36:04.543Z,32.13
2022-10-12T08:38:52.955Z,29.35
2022-10-12T08:41:35.619Z,30.27
2022-10-12T08:44:45.158Z,25.67
2022-10-12T08:47:45.708Z,29.17
2022-10-12T08:51:08.416Z,30.83
2022-10-12T08:54:13.926Z,31.25
2022-10-12T08:56:50.245Z,29.02
2022-10-12T08:59:33.324Z,29.02
2022-10-12T09:02:38.945Z,26.42
2022-10-12T09:09:16.076Z,28.38
2022-10-12T09:12:07.360Z,29.17
2022-10-12T09:14:37.117Z,28.00
2022-10-12T09:17:22.803Z,27.15
2022-10-12T09:20:02.347Z,33.30
2022-10-12T09:22:39.410Z,29.08
2022-10-12T09:25:16.807Z,29.67
2022-10-12T09:27:56.095Z,32.55
2022-10-12T09:30:29.864Z,29.80
2022-10-12T09:33:28.628Z,30.33
2022-10-12T09:36:00.443Z,31.10
2022-10-12T09:38:38.147Z,27.35
2022-10-12T09:41:37.736Z,25.30
2022-10-12T09:44:14.209Z,27.10
2022-10-12T09:46:56.042Z,26.80
2022-10-12T09:49:55.305Z,30.63
2022-10-12T09:52:30.146Z,23.63
2022-10-12T09:55:11.906Z,31.35
2022-10-12T09:58:21.764Z,29.60
2022-10-12T10:01:23.008Z,29.35
2022-10-12T10:04:10.372Z,30.67
2022-10-12T10:09:37.173Z,27.30
2022-10-12T10:12:26.106Z,26.85
2022-10-12T10:15:11.664Z,29.08
2022-10-12T10:17:39.012Z,30.35
2022-10-12T10:20:50.441Z,30.77
2022-10-12T10:23:57.204Z,23.90
2022-10-12T10:26:25.871Z,23.65
2022-10-12T10:29:32.874Z,29.20
2022-10-12T10:32:36.713Z,24.83
2022-10-12T10:35:16.056Z,25.20
2022-10-12T10:37:57.766Z,24.95
2022-10-12T10:40:35.717Z,23.98
2022-10-12T10:43:26.568Z,27.38
2022-10-12T10:46:09.301Z,26.48
2022-10-12T10:49:04.683Z,24.45
2022-10-12T10:51:49.575Z,31.17
2022-10-12T10:54:32.086Z,25.83
2022-10-12T10:57:33.354Z,24.25
2022-10-12T11:00:38.049Z,35.42
2022-10-12T11:03:25.452Z,25.42
2022-10-12T11:06:17.835Z,28.98
2022-10-12T11:08:46.452Z,29.05
2022-10-12T11:11:30.474Z,24.92
2022-10-12T11:14:07.032Z,25.40
2022-10-12T11:16:43.497Z,23.98
2022-10-12T11:19:51.642Z,23.17
2022-10-12T11:22:40.476Z,25.60
2022-10-12T11:25:19.878Z,24.55
2022-10-12T11:27:56.593Z,25.80
2022-10-12T11:33:27.443Z,31.95
2022-10-12T11:36:07.046Z,23.02
2022-10-12T11:38:47.156Z,21.45
2022-10-12T11:41:37.955Z,25.17
2022-10-12T11:44:19.181Z,24.00
2022-10-12T11:47:06.631Z,29.58
2022-10-12T11:49:59.874Z,23.90
2022-10-12T11:52:49.303Z,24.98
2022-10-12T11:55:45.218Z,26.85
2022-10-12T11:58:55.980Z,22.40
2022-10-12T12:01:51.381Z,29.85
2022-10-12T12:04:47.521Z,24.75
2022-10-12T12:07:31.344Z,23.80
2022-10-12T12:10:30.781Z,24.75
2022-10-12T12:13:23.520Z,20.40
2022-10-12T12:19:13.312Z,22.73
2022-10-12T12:22:18.212Z,21.38
2022-10-12T12:25:07.979Z,26.23
2022-10-12T12:27:48.585Z,21.08
2022-10-12T12:30:51.237Z,21.40
2022-10-12T12:33:27.874Z,25.02
2022-10-12T12:38:57.654Z,18.65
2022-10-12T12:42:01.314Z,18.52
2022-10-12T12:47:46.549Z,16.95
2022-10-12T12:50:37.879Z,20.95
2022-10-12T12:53:21.985Z,21.98
2022-10-12T12:56:18.326Z,24.63
2022-10-12T12:58:58.341Z,23.02
2022-10-12T13:01:48.121Z,30.70
2022-10-12T13:04:53.851Z,22.73
2022-10-12T13:07:49.088Z,16.85
2022-10-12T13:10:33.470Z,32.17
2022-10-12T13:13:38.868Z,26.85
2022-10-12T13:19:38.050Z,25.17
2022-10-12T13:22:23.717Z,22.83
2022-10-12T13:25:02.652Z,19.65
2022-10-12T13:27:52.061Z,18.10
2022-10-12T13:31:00.335Z,23.63
2022-10-12T13:33:47.116Z,24.13
2022-10-12T13:36:34.970Z,26.73
2022-10-12T13:39:43.302Z,27.90
2022-10-12T13:42:27.995Z,22.85
2022-10-12T13:45:03.156Z,29.27
2022-10-12T13:47:49.921Z,24.23
2022-10-12T13:50:24.513Z,26.65
2022-10-12T13:53:00.065Z,25.30
2022-10-12T13:55:42.885Z,23.88
2022-10-12T13:58:31.666Z,27.88
2022-10-12T14:01:14.568Z,24.05
2022-10-12T14:03:50.284Z,22.23
2022-10-12T14:06:39.074Z,22.63
2022-10-12T14:09:38.053Z,22.80
2022-10-12T14:12:11.679Z,22.10
2022-10-12T14:17:29.732Z,22.60
2022-10-12T14:20:16.421Z,24.33
2022-10-12T14:22:49.735Z,21.08
2022-10-12T14:25:30.912Z,25.42
2022-10-12T14:28:32.258Z,24.52
2022-10-12T14:31:17.079Z,19.33
2022-10-12T14:33:44.519Z,24.45
2022-10-12T14:36:38.879Z,22.13
2022-10-12T14:39:21.666Z,31.33
2022-10-12T14:41:51.897Z,26.45
2022-10-12T14:44:31.101Z,24.88
2022-10-12T14:47:31.779Z,23.33
2022-10-12T14:50:12.836Z,29.92
2022-10-12T14:52:54.415Z,26.02
2022-10-12T14:55:33.493Z,29.45
2022-10-12T14:58:16.586Z,19.13
2022-10-12T15:00:51.773Z,24.35
2022-10-12T15:03:22.398Z,22.40
2022-10-12T15:06:03.225Z,19.85
2022-10-12T15:08:44.001Z,22.65
2022-10-12T15:11:32.086Z,22.15
2022-10-12T15:14:17.793Z,35.33
2022-10-12T15:16:58.737Z,25.48
2022-10-12T15:19:47.040Z,22.73
2022-10-12T15:22:46.739Z,32.78
2022-10-12T15:25:48.670Z,28.30
2022-10-12T15:28:23.687Z,33.20
2022-10-12T15:31:23.314Z,31.52
2022-10-12T15:34:13.368Z,21.15
2022-10-12T15:36:59.157Z,20.15
2022-10-12T15:39:55.548Z,30.73
2022-10-12T15:42:38.724Z,27.42
2022-10-12T15:45:38.121Z,26.20
2022-10-12T15:48:19.476Z,27.00
2022-10-12T15:51:18.551Z,21.60
2022-10-12T15:53:58.072Z,21.90
2022-10-12T15:56:28.098Z,35.60
2022-10-12T15:59:08.978Z,20.75
2022-10-12T16:01:50.369Z,21.85
2022-10-12T16:04:43.168Z,23.52
2022-10-12T16:07:49.720Z,21.02
2022-10-12T16:10:25.412Z,24.25
2022-10-12T16:13:04.309Z,21.55
2022-10-12T16:15:44.463Z,28.95
2022-10-12T16:18:13.731Z,25.08
2022-10-12T16:20:53.569Z,32.40
2022-10-12T16:23:46.985Z,26.42
2022-10-12T16:26:25.535Z,26.80
2022-10-12T16:29:03.518Z,28.55
2022-10-12T16:34:20.488Z,23.95
2022-10-12T16:40:08.464Z,24.63
2022-10-12T16:42:42.304Z,25.83
2022-10-12T16:45:29.238Z,26.00
2022-10-12T16:48:11.062Z,24.58
2022-10-12T16:50:50.847Z,26.00
2022-10-12T16:53:27.987Z,40.83
2022-10-12T16:56:02.480Z,32.20
2022-10-12T16:58:48.013Z,37.00
2022-10-12T17:01:25.361Z,35.78
2022-10-12T17:04:06.805Z,34.60
2022-10-12T17:06:45.822Z,30.50
2022-10-12T17:09:22.300Z,35.42
2022-10-12T17:11:54.129Z,33.20
2022-10-12T17:14:38.113Z,35.30
2022-10-12T17:19:55.274Z,35.25
2022-10-12T17:22:51.881Z,37.60
2022-10-12T17:25:30.912Z,41.58
2022-10-12T17:28:14.475Z,47.78
2022-10-12T17:30:59.027Z,34.08
2022-10-12T17:33:42.843Z,36.50
2022-10-12T17:39:33.821Z,33.42
2022-10-12T17:42:11.001Z,31.60
2022-10-12T17:44:57.056Z,35.67
2022-10-12T17:47:32.142Z,31.38
2022-10-12T17:50:06.072Z,39.22
2022-10-12T17:52:41.970Z,36.72
2022-10-12T17:55:36.541Z,45.63
2022-10-12T17:58:22.843Z,42.25
2022-10-12T18:01:14.034Z,40.03
2022-10-12T18:03:56.073Z,40.53
2022-10-12T18:06:31.238Z,35.88
2022-10-12T18:09:04.880Z,37.13
2022-10-12T18:11:55.034Z,40.08
2022-10-12T18:14:38.932Z,36.72
2022-10-12T18:17:20.681Z,38.05
2022-10-12T18:20:03.019Z,38.38
2022-10-12T18:22:37.034Z,36.37
2022-10-12T18:25:21.550Z,49.40
2022-10-12T18:27:56.893Z,37.88
2022-10-12T18:30:42.455Z,47.83
2022-10-12T18:36:19.612Z,42.83
2022-10-12T18:39:03.581Z,48.53
2022-10-12T18:44:15.711Z,42.35
2022-10-12T18:46:57.011Z,44.63
2022-10-12T18:49:47.357Z,50.53
2022-10-12T18:52:34.465Z,45.97
2022-10-12T18:57:55.718Z,47.35
2022-10-12T19:00:39.988Z,53.10
2022-10-12T19:03:25.001Z,56.00
2022-10-12T19:06:13.194Z,52.05
2022-10-12T19:08:46.543Z,57.07
2022-10-12T19:11:30.092Z,60.03
2022-10-12T19:14:09.022Z,56.58
2022-10-12T19:16:55.116Z,56.13
2022-10-12T19:19:34.036Z,61.15
2022-10-12T19:22:13.062Z,65.18
2022-10-12T19:24:54.924Z,73.65
2022-10-12T19:27:29.194Z,69.45
2022-10-12T19:30:08.638Z,79.53
2022-10-12T19:32:51.369Z,78.03
2022-10-12T19:35:41.452Z,75.35
2022-10-12T19:38:16.410Z,76.85
2022-10-12T19:40:54.576Z,80.40
2022-10-12T19:43:33.045Z,78.80
2022-10-12T19:46:12.017Z,73.10
2022-10-12T19:49:08.671Z,74.00
2022-10-12T19:51:45.332Z,73.63
2022-10-12T19:54:26.499Z,65.38
2022-10-12T19:57:10.034Z,63.90
2022-10-12T19:59:48.039Z,64.93
2022-10-12T20:02:30.361Z,61.13
2022-10-12T20:05:14.458Z,62.38
2022-10-12T20:07:55.344Z,58.83
2022-10-12T20:10:43.210Z,64.68
2022-10-12T20:13:18.684Z,59.33
2022-10-12T20:16:00.239Z,62.60
2022-10-12T20:18:39.054Z,69.07
2022-10-12T20:21:18.471Z,71.53
2022-10-12T20:23:58.988Z,79.43
2022-10-12T20:26:40.167Z,77.28
2022-10-12T20:29:16.581Z,71.93
2022-10-12T20:32:00.649Z,71.53
2022-10-12T20:37:19.714Z,76.70
2022-10-12T20:39:55.494Z,65.78
2022-10-12T20:42:35.833Z,74.85
2022-10-12T20:45:09.644Z,75.00
2022-10-12T20:47:50.262Z,77.43
2022-10-12T20:50:27.866Z,70.70
2022-10-12T20:53:10.616Z,76.03
2022-10-12T20:58:53.991Z,74.82
2022-10-12T21:01:38.137Z,78.85
2022-10-12T21:04:14.025Z,80.80
2022-10-12T21:06:51.698Z,76.10
2022-10-12T21:09:30.014Z,74.88
2022-10-12T21:12:06.745Z,68.75
2022-10-12T21:14:43.270Z,67.45
2022-10-12T21:17:28.418Z,71.60
2022-10-12T21:20:08.908Z,74.88
2022-10-12T21:22:53.268Z,70.00
2022-10-12T21:25:36.685Z,69.43
2022-10-12T21:28:18.377Z,69.80
2022-10-12T21:30:58.976Z,72.90
2022-10-12T21:33:43.102Z,74.68
2022-10-12T21:36:21.305Z,66.93
2022-10-12T21:38:56.468Z,62.75
2022-10-12T21:41:37.269Z,61.17
2022-10-12T21:44:18.848Z,71.10
2022-10-12T21:46:56.864Z,60.42
2022-10-12T21:49:31.366Z,67.07
2022-10-12T21:52:08.465Z,60.03
2022-10-12T21:54:45.402Z,74.10
2022-10-12T21:57:22.194Z,66.80
2022-10-12T21:59:59.847Z,63.03
2022-10-12T22:02:36.452Z,69.90
2022-10-12T22:05:14.611Z,65.38
2022-10-12T22:07:49.785Z,61.88
2022-10-12T22:10:30.856Z,60.85
2022-10-12T22:13:12.998Z,62.80
2022-10-12T22:16:08.455Z,64.35
2022-10-12T22:18:44.114Z,67.10
2022-10-12T22:21:25.082Z,57.80
2022-10-12T22:24:05.508Z,56.58
2022-10-12T22:26:52.169Z,61.92
2022-10-12T22:29:28.793Z,63.83
2022-10-12T22:32:09.571Z,60.03
2022-10-12T22:34:44.875Z,65.47
2022-10-12T22:37:23.115Z,57.25
2022-10-12T22:40:09.365Z,61.47
2022-10-12T22:42:50.480Z,60.05
2022-10-12T22:45:28.067Z,57.63
2022-10-12T22:48:14.853Z,73.20
2022-10-12T22:50:53.377Z,65.85
2022-10-12T22:53:26.919Z,61.35
2022-10-12T22:56:14.510Z,59.97
2022-10-12T22:58:45.465Z,61.47
2022-10-12T23:03:47.762Z,61.80
2022-10-12T23:06:23.385Z,58.73
2022-10-12T23:09:10.482Z,62.08
2022-10-12T23:11:51.151Z,59.38
2022-10-12T23:14:28.376Z,66.30
2022-10-12T23:17:03.498Z,57.95
2022-10-12T23:19:33.192Z,55.97
2022-10-12T23:22:15.384Z,55.42
2022-10-12T23:24:55.895Z,61.67
2022-10-12T23:27:31.332Z,52.70
2022-10-12T23:30:16.956Z,59.88
2022-10-12T23:33:02.729Z,58.22
2022-10-12T23:35:38.969Z,54.78
2022-10-12T23:38:15.999Z,50.75
2022-10-12T23:41:00.662Z,51.17
2022-10-12T23:43:40.025Z,55.78
2022-10-12T23:46:15.589Z,53.53
2022-10-12T23:48:53.687Z,56.65
2022-10-12T23:51:32.179Z,55.08
2022-10-12T23:54:04.043Z,57.90
2022-10-12T23:56:43.200Z,51.08
2022-10-12T23:59:21.184Z,52.05
